createdAt,value
2018-07-24T00:01:08.192Z,19.90
2018-07-24T00:03:36.246Z,19.90
2018-07-24T00:06:04.313Z,20.00
2018-07-24T00:08:32.441Z,20.00
2018-07-24T00:11:00.554Z,19.90
2018-07-24T00:13:28.607Z,19.80
2018-07-24T00:15:56.727Z,19.80
2018-07-24T00:18:24.807Z,19.70
2018-07-24T00:20:52.921Z,19.60
2018-07-24T00:23:20.989Z,19.60
2018-07-24T00:25:49.068Z,19.50
2018-07-24T00:28:17.132Z,19.40
2018-07-24T00:30:45.254Z,19.40
2018-07-24T00:33:13.430Z,19.40
2018-07-24T00:35:41.477Z,19.50
2018-07-24T00:38:09.559Z,19.40
2018-07-24T00:40:37.689Z,19.40
2018-07-24T00:43:05.764Z,19.30
2018-07-24T00:45:33.966Z,19.30
2018-07-24T00:48:02.080Z,19.30
2018-07-24T00:50:30.145Z,19.30
2018-07-24T00:52:58.206Z,19.20
2018-07-24T00:55:26.330Z,19.20
2018-07-24T00:57:54.590Z,19.20
2018-07-24T01:00:22.695Z,19.20
2018-07-24T01:02:50.766Z,19.10
2018-07-24T01:05:18.829Z,19.10
2018-07-24T01:07:46.890Z,19.10
2018-07-24T01:10:15.014Z,19.10
2018-07-24T01:12:43.075Z,19.10
2018-07-24T01:15:11.124Z,19.10
2018-07-24T01:17:39.332Z,19.10
2018-07-24T01:20:07.436Z,19.10
2018-07-24T01:22:35.521Z,19.20
2018-07-24T01:25:03.661Z,19.20
2018-07-24T01:27:31.748Z,19.20
2018-07-24T01:29:59.795Z,19.30
2018-07-24T01:32:27.854Z,19.30
2018-07-24T01:34:55.975Z,19.30
2018-07-24T01:37:24.112Z,19.30
2018-07-24T01:39:52.212Z,19.30
2018-07-24T01:42:20.281Z,19.30
2018-07-24T01:44:48.358Z,19.30
2018-07-24T01:47:16.439Z,19.20
2018-07-24T01:49:44.520Z,19.20
2018-07-24T01:52:12.619Z,19.10
2018-07-24T01:54:40.708Z,19.10
2018-07-24T01:57:08.799Z,19.10
2018-07-24T01:59:36.851Z,19.10
2018-07-24T02:02:04.914Z,19.10
2018-07-24T02:04:33.020Z,19.00
2018-07-24T02:07:01.100Z,19.00
2018-07-24T02:11:57.044Z,18.90
2018-07-24T02:14:25.106Z,18.80
2018-07-24T02:16:53.210Z,18.80
2018-07-24T02:19:21.309Z,18.70
2018-07-24T02:21:49.494Z,18.70
2018-07-24T02:24:17.589Z,18.70
2018-07-24T02:26:45.686Z,18.70
2018-07-24T02:29:13.799Z,18.80
2018-07-24T02:31:41.875Z,18.80
2018-07-24T02:34:09.924Z,18.70
2018-07-24T02:36:38.048Z,18.60
2018-07-24T02:39:08.985Z,18.60
2018-07-24T02:41:37.094Z,18.50
2018-07-24T02:44:05.179Z,18.50
2018-07-24T02:46:33.232Z,18.40
2018-07-24T02:49:01.306Z,18.40
2018-07-24T02:51:29.404Z,18.40
2018-07-24T02:53:57.536Z,18.40
2018-07-24T02:56:25.625Z,18.40
2018-07-24T02:58:53.740Z,18.40
2018-07-24T03:01:21.790Z,18.40
2018-07-24T03:03:49.906Z,18.40
2018-07-24T03:06:18.009Z,18.40
2018-07-24T03:08:46.115Z,18.50
2018-07-24T03:11:14.224Z,18.50
2018-07-24T03:13:42.347Z,18.50
2018-07-24T03:16:10.484Z,18.50
2018-07-24T03:18:38.567Z,18.60
2018-07-24T03:21:06.677Z,18.70
2018-07-24T03:23:34.805Z,18.70
2018-07-24T03:26:02.968Z,18.80
2018-07-24T03:28:31.067Z,18.70
2018-07-24T03:30:59.103Z,18.70
2018-07-24T03:33:27.166Z,18.60
2018-07-24T03:35:55.248Z,18.60
2018-07-24T03:38:23.347Z,18.50
2018-07-24T03:40:51.403Z,18.50
2018-07-24T03:43:19.480Z,18.40
2018-07-24T03:45:47.576Z,18.40
2018-07-24T03:48:15.688Z,18.40
2018-07-24T03:50:43.725Z,18.40
2018-07-24T03:53:11.942Z,18.30
2018-07-24T03:55:40.077Z,18.30
2018-07-24T03:58:08.246Z,18.30
2018-07-24T04:00:36.295Z,18.40
2018-07-24T04:03:04.382Z,18.50
2018-07-24T04:05:32.455Z,18.50
2018-07-24T04:08:00.546Z,18.50
2018-07-24T04:10:28.606Z,18.60
2018-07-24T04:12:56.700Z,18.70
2018-07-24T04:15:24.787Z,18.80
2018-07-24T04:20:20.870Z,18.80
2018-07-24T04:22:48.988Z,18.80
2018-07-24T04:25:17.056Z,18.80
2018-07-24T04:27:45.132Z,18.80
2018-07-24T04:30:13.211Z,18.80
2018-07-24T04:32:41.275Z,18.90
2018-07-24T04:35:09.339Z,18.90
2018-07-24T04:37:37.423Z,18.90
2018-07-24T04:40:05.792Z,18.90
2018-07-24T04:42:33.908Z,18.90
2018-07-24T04:45:01.999Z,19.00
2018-07-24T04:47:30.099Z,19.00
2018-07-24T04:49:58.256Z,19.10
2018-07-24T04:52:26.387Z,19.10
2018-07-24T04:54:54.492Z,19.20
2018-07-24T04:57:22.670Z,19.30
2018-07-24T04:59:50.763Z,19.40
2018-07-24T05:02:25.328Z,19.50
2018-07-24T05:04:53.431Z,19.60
2018-07-24T05:07:21.564Z,19.60
2018-07-24T05:09:49.684Z,19.70
2018-07-24T05:12:17.763Z,19.90
2018-07-24T05:14:45.854Z,19.90
2018-07-24T05:17:14.049Z,20.00
2018-07-24T05:19:42.191Z,20.10
2018-07-24T05:22:10.331Z,20.20
2018-07-24T05:24:38.427Z,20.30
2018-07-24T05:27:06.518Z,20.50
2018-07-24T05:29:34.639Z,20.70
2018-07-24T05:32:02.740Z,20.90
2018-07-24T05:34:30.887Z,21.10
2018-07-24T05:36:58.999Z,21.40
2018-07-24T05:39:27.131Z,21.50
2018-07-24T05:41:55.344Z,21.60
2018-07-24T05:44:23.425Z,21.70
2018-07-24T05:46:51.497Z,21.70
2018-07-24T05:51:47.474Z,21.90
2018-07-24T05:54:15.582Z,21.90
2018-07-24T05:56:43.663Z,22.10
2018-07-24T05:59:11.973Z,22.20
2018-07-24T06:01:40.245Z,22.60
2018-07-24T06:06:36.246Z,23.20
2018-07-24T06:09:06.730Z,23.50
2018-07-24T06:11:41.625Z,23.60
2018-07-24T06:14:09.758Z,23.60
2018-07-24T06:16:37.882Z,23.60
2018-07-24T06:19:06.078Z,23.50
2018-07-24T06:21:34.158Z,23.50
2018-07-24T06:24:02.290Z,23.50
2018-07-24T06:26:30.480Z,23.40
2018-07-24T06:33:54.417Z,23.40
2018-07-24T06:36:22.511Z,23.40
2018-07-24T06:38:50.609Z,23.40
2018-07-24T06:41:18.683Z,23.40
2018-07-24T06:43:46.752Z,23.50
2018-07-24T06:46:14.840Z,23.60
2018-07-24T06:48:42.951Z,23.70
2018-07-24T06:51:11.086Z,23.70
2018-07-24T06:53:39.138Z,23.60
2018-07-24T06:56:07.228Z,23.70
2018-07-24T06:58:35.350Z,23.80
2018-07-24T07:01:03.492Z,23.90
2018-07-24T07:03:31.558Z,23.90
2018-07-24T07:05:59.639Z,23.90
2018-07-24T07:08:27.738Z,24.10
2018-07-24T07:10:55.921Z,24.20
2018-07-24T07:13:24.025Z,24.40
2018-07-24T07:15:52.124Z,24.50
2018-07-24T07:18:20.206Z,24.50
2018-07-24T07:20:48.266Z,24.60
2018-07-24T07:23:16.376Z,24.70
2018-07-24T07:25:44.511Z,24.70
2018-07-24T07:28:12.651Z,24.80
2018-07-24T07:30:40.768Z,24.90
2018-07-24T07:33:08.853Z,25.00
2018-07-24T07:35:36.946Z,25.10
2018-07-24T07:38:05.100Z,25.10
2018-07-24T07:40:33.269Z,25.20
2018-07-24T07:43:01.591Z,25.40
2018-07-24T07:45:29.684Z,25.60
2018-07-24T07:47:57.806Z,25.70
2018-07-24T07:50:25.985Z,25.80
2018-07-24T07:52:54.408Z,26.00
2018-07-24T07:55:22.727Z,26.00
2018-07-24T07:57:50.797Z,26.40
2018-07-24T08:00:19.118Z,26.90
2018-07-24T08:02:47.190Z,27.40
2018-07-24T08:05:15.389Z,27.90
2018-07-24T08:07:43.501Z,28.20
2018-07-24T08:10:11.983Z,28.50
2018-07-24T08:12:40.262Z,28.80
2018-07-24T08:15:08.359Z,28.80
2018-07-24T08:20:04.485Z,28.10
2018-07-24T08:22:32.598Z,27.80
2018-07-24T08:25:00.767Z,27.50
2018-07-24T08:29:56.851Z,27.20
2018-07-24T08:32:24.995Z,27.10
2018-07-24T08:34:53.122Z,27.00
2018-07-24T08:37:21.395Z,27.00
2018-07-24T08:39:49.543Z,27.00
2018-07-24T08:42:17.919Z,26.90
2018-07-24T08:44:46.085Z,26.80
2018-07-24T08:47:14.179Z,26.60
2018-07-24T08:49:42.239Z,26.60
2018-07-24T08:52:10.333Z,26.60
2018-07-24T08:54:38.724Z,26.70
2018-07-24T08:57:06.553Z,26.70
2018-07-24T08:59:34.652Z,26.90
2018-07-24T09:02:02.730Z,26.90
2018-07-24T09:04:30.799Z,26.90
2018-07-24T09:06:59.155Z,26.90
2018-07-24T09:09:27.276Z,27.00
2018-07-24T09:11:55.378Z,27.10
2018-07-24T09:14:23.454Z,27.10
2018-07-24T09:16:51.563Z,27.10
2018-07-24T09:19:19.632Z,27.20
2018-07-24T09:21:47.722Z,27.40
2018-07-24T09:24:15.868Z,27.50
2018-07-24T09:26:44.044Z,27.50
2018-07-24T09:29:12.177Z,27.50
2018-07-24T09:31:40.283Z,27.70
2018-07-24T09:34:08.470Z,27.80
2018-07-24T09:36:36.663Z,27.90
2018-07-24T09:39:07.731Z,28.00
2018-07-24T09:41:35.951Z,28.10
2018-07-24T09:44:04.020Z,28.20
2018-07-24T09:49:00.027Z,28.30
2018-07-24T09:51:28.100Z,27.80
2018-07-24T09:53:56.402Z,27.60
2018-07-24T09:56:24.553Z,27.70
2018-07-24T09:58:52.648Z,27.60
2018-07-24T10:03:54.387Z,27.30
2018-07-24T10:06:22.555Z,27.10
2018-07-24T10:08:50.653Z,26.90
2018-07-24T10:11:18.703Z,27.10
2018-07-24T10:13:46.779Z,27.20
2018-07-24T10:16:14.842Z,27.20
2018-07-24T10:18:42.975Z,27.40
2018-07-24T10:21:11.005Z,27.60
2018-07-24T10:23:39.177Z,27.70
2018-07-24T10:26:07.452Z,27.70
2018-07-24T10:28:35.639Z,27.70
2018-07-24T10:31:03.721Z,27.70
2018-07-24T10:33:31.843Z,28.00
2018-07-24T10:35:59.981Z,28.30
2018-07-24T10:40:56.007Z,28.70
2018-07-24T10:43:24.342Z,28.70
2018-07-24T10:45:53.003Z,28.80
2018-07-24T10:48:21.235Z,28.80
2018-07-24T10:50:49.366Z,28.70
2018-07-24T10:53:17.616Z,28.70
2018-07-24T10:55:45.715Z,28.60
2018-07-24T10:58:13.819Z,28.60
2018-07-24T11:00:43.051Z,28.60
2018-07-24T11:03:11.340Z,28.70
2018-07-24T11:05:39.576Z,28.80
2018-07-24T11:08:08.983Z,28.90
2018-07-24T11:10:37.110Z,28.70
2018-07-24T11:13:05.391Z,28.70
2018-07-24T11:15:33.488Z,28.70
2018-07-24T11:18:01.660Z,28.70
2018-07-24T11:20:29.799Z,28.80
2018-07-24T11:22:58.097Z,28.80
2018-07-24T11:25:26.200Z,29.00
2018-07-24T11:27:54.440Z,29.20
2018-07-24T11:30:22.534Z,29.40
2018-07-24T11:32:50.746Z,29.60
2018-07-24T11:35:18.827Z,29.70
2018-07-24T11:37:47.329Z,29.70
2018-07-24T11:40:15.514Z,29.50
2018-07-24T11:42:43.627Z,29.30
2018-07-24T11:45:11.718Z,29.00
2018-07-24T11:47:41.081Z,28.80
2018-07-24T11:50:09.385Z,28.60
2018-07-24T11:52:37.554Z,28.50
2018-07-24T11:55:06.407Z,28.40
2018-07-24T11:57:34.594Z,28.50
2018-07-24T12:00:02.696Z,28.70
2018-07-24T12:02:30.896Z,29.00
2018-07-24T12:04:59.015Z,29.10
2018-07-24T12:07:27.131Z,29.10
2018-07-24T12:09:55.258Z,29.30
2018-07-24T12:12:23.346Z,29.20
2018-07-24T12:14:51.480Z,29.30
2018-07-24T12:17:20.003Z,29.30
2018-07-24T12:19:48.526Z,29.40
2018-07-24T12:22:16.628Z,29.40
2018-07-24T12:24:45.015Z,29.40
2018-07-24T12:27:13.220Z,29.40
2018-07-24T12:32:09.540Z,29.40
2018-07-24T12:34:37.724Z,29.40
2018-07-24T12:37:06.157Z,29.50
2018-07-24T12:39:34.281Z,29.70
2018-07-24T12:42:02.628Z,30.00
2018-07-24T12:44:30.822Z,30.10
2018-07-24T12:47:00.011Z,30.00
2018-07-24T12:49:28.624Z,30.00
2018-07-24T12:54:24.622Z,29.70
2018-07-24T12:56:52.677Z,29.70
2018-07-24T12:59:20.810Z,29.70
2018-07-24T13:01:48.864Z,29.70
2018-07-24T13:04:17.019Z,29.60
2018-07-24T13:06:45.129Z,29.60
2018-07-24T13:09:14.312Z,29.70
2018-07-24T13:11:42.662Z,29.80
2018-07-24T13:14:10.776Z,29.80
2018-07-24T13:16:39.346Z,29.80
2018-07-24T13:19:07.490Z,29.90
2018-07-24T13:21:35.716Z,30.00
2018-07-24T13:26:32.427Z,29.80
2018-07-24T13:29:00.789Z,29.80
2018-07-24T13:31:29.026Z,29.70
2018-07-24T13:33:57.098Z,29.80
2018-07-24T13:36:25.302Z,29.80
2018-07-24T13:38:53.408Z,29.80
2018-07-24T13:41:21.880Z,29.90
2018-07-24T13:43:50.130Z,29.90
2018-07-24T13:46:18.585Z,29.90
2018-07-24T13:48:46.707Z,29.90
2018-07-24T13:51:14.972Z,29.80
2018-07-24T13:53:43.398Z,29.80
2018-07-24T13:56:11.534Z,29.80
2018-07-24T13:58:39.599Z,29.80
2018-07-24T14:01:07.839Z,29.70
2018-07-24T14:03:35.950Z,29.70
2018-07-24T14:06:04.066Z,29.60
2018-07-24T14:08:32.228Z,29.40
2018-07-24T14:11:00.319Z,29.30
2018-07-24T14:13:28.528Z,29.20
2018-07-24T14:15:56.618Z,29.20
2018-07-24T14:18:24.754Z,29.20
2018-07-24T14:20:52.856Z,29.20
2018-07-24T14:23:20.961Z,29.20
2018-07-24T14:25:49.095Z,29.30
2018-07-24T14:28:17.247Z,29.30
2018-07-24T14:30:45.344Z,29.40
2018-07-24T14:33:13.473Z,29.60
2018-07-24T14:35:41.655Z,29.70
2018-07-24T14:38:09.763Z,29.90
2018-07-24T14:40:37.949Z,30.10
2018-07-24T14:43:06.294Z,30.20
2018-07-24T14:45:35.543Z,30.30
2018-07-24T14:48:03.788Z,30.20
2018-07-24T14:50:31.939Z,30.30
2018-07-24T14:53:01.021Z,30.40
2018-07-24T14:55:29.921Z,30.40
2018-07-24T14:57:57.981Z,30.50
2018-07-24T15:00:26.415Z,30.40
2018-07-24T15:02:54.592Z,30.30
2018-07-24T15:05:22.781Z,30.30
2018-07-24T15:07:51.041Z,30.10
2018-07-24T15:10:19.199Z,30.00
2018-07-24T15:12:47.290Z,30.00
2018-07-24T15:15:15.519Z,29.90
2018-07-24T15:17:43.599Z,29.80
2018-07-24T15:20:11.875Z,29.60
2018-07-24T15:22:39.954Z,29.50
2018-07-24T15:25:08.165Z,29.50
2018-07-24T15:27:36.332Z,29.40
2018-07-24T15:30:05.924Z,29.50
2018-07-24T15:32:34.030Z,29.50
2018-07-24T15:35:02.237Z,29.50
2018-07-24T15:37:30.376Z,29.50
2018-07-24T15:39:58.536Z,29.40
2018-07-24T15:42:26.604Z,29.20
2018-07-24T15:44:54.733Z,29.10
2018-07-24T15:49:57.567Z,29.00
2018-07-24T15:52:25.671Z,29.00
2018-07-24T15:54:53.770Z,29.00
2018-07-24T15:57:21.859Z,29.00
2018-07-24T15:59:49.933Z,29.10
2018-07-24T16:02:18.057Z,29.10
2018-07-24T16:04:46.176Z,29.20
2018-07-24T16:07:14.360Z,29.20
2018-07-24T16:09:42.512Z,29.20
2018-07-24T16:12:10.928Z,29.20
2018-07-24T16:14:39.049Z,29.30
2018-07-24T16:17:07.342Z,29.20
2018-07-24T16:19:35.484Z,29.20
2018-07-24T16:22:03.818Z,29.20
2018-07-24T16:24:32.176Z,29.20
2018-07-24T16:27:00.416Z,29.20
2018-07-24T16:29:28.544Z,29.20
2018-07-24T16:31:56.732Z,29.20
2018-07-24T16:34:24.891Z,29.20
2018-07-24T16:39:20.986Z,29.10
2018-07-24T16:41:49.092Z,29.10
2018-07-24T16:44:17.174Z,29.10
2018-07-24T16:46:45.331Z,29.10
2018-07-24T16:49:13.450Z,29.10
2018-07-24T16:51:41.630Z,29.10
2018-07-24T16:54:09.752Z,29.00
2018-07-24T16:56:37.936Z,28.90
2018-07-24T16:59:06.350Z,28.90
2018-07-24T17:01:34.481Z,28.80
2018-07-24T17:04:02.605Z,28.80
2018-07-24T17:06:30.745Z,28.80
2018-07-24T17:08:58.801Z,28.70
2018-07-24T17:11:26.889Z,28.70
2018-07-24T17:13:55.073Z,28.80
2018-07-24T17:16:23.115Z,28.80
2018-07-24T17:18:51.308Z,28.80
2018-07-24T17:21:19.506Z,28.80
2018-07-24T17:23:47.758Z,28.80
2018-07-24T17:26:15.916Z,28.70
2018-07-24T17:28:44.097Z,28.70
2018-07-24T17:31:12.233Z,28.60
2018-07-24T17:33:40.375Z,28.60
2018-07-24T17:36:08.492Z,28.60
2018-07-24T17:38:36.693Z,28.60
2018-07-24T17:41:04.837Z,28.60
2018-07-24T17:43:32.966Z,28.60
2018-07-24T17:46:01.206Z,28.60
2018-07-24T17:48:29.427Z,28.50
2018-07-24T17:53:25.604Z,28.60
2018-07-24T17:55:53.802Z,28.50
2018-07-24T17:58:22.117Z,28.50
2018-07-24T18:00:50.265Z,28.50
2018-07-24T18:03:18.486Z,28.50
2018-07-24T18:08:14.658Z,28.50
2018-07-24T18:10:43.576Z,28.40
2018-07-24T18:13:11.729Z,28.50
2018-07-24T18:15:39.822Z,28.50
2018-07-24T18:18:07.938Z,28.50
2018-07-24T18:23:04.129Z,28.40
2018-07-24T18:25:32.292Z,28.40
2018-07-24T18:28:00.423Z,28.30
2018-07-24T18:30:28.552Z,28.30
2018-07-24T18:32:56.659Z,28.30
2018-07-24T18:35:24.808Z,28.20
2018-07-24T18:37:52.909Z,28.20
2018-07-24T18:40:20.990Z,28.10
2018-07-24T18:45:17.594Z,27.90
2018-07-24T18:47:45.765Z,27.80
2018-07-24T18:50:13.883Z,27.70
2018-07-24T18:52:42.049Z,27.60
2018-07-24T18:55:10.266Z,27.50
2018-07-24T18:57:38.563Z,27.40
2018-07-24T19:00:06.752Z,27.30
2018-07-24T19:02:34.921Z,27.30
2018-07-24T19:05:03.088Z,27.20
2018-07-24T19:07:31.213Z,27.10
2018-07-24T19:09:59.354Z,27.00
2018-07-24T19:12:27.489Z,27.00
2018-07-24T19:14:55.666Z,26.90
2018-07-24T19:17:24.125Z,26.80
2018-07-24T19:19:52.237Z,26.80
2018-07-24T19:22:20.359Z,26.70
2018-07-24T19:24:48.500Z,26.70
2018-07-24T19:27:16.634Z,26.60
2018-07-24T19:29:44.837Z,26.60
2018-07-24T19:32:12.956Z,26.50
2018-07-24T19:34:41.056Z,26.50
2018-07-24T19:42:05.083Z,26.30
2018-07-24T19:44:34.425Z,26.10
2018-07-24T19:47:04.684Z,26.10
2018-07-24T19:49:33.001Z,26.00
2018-07-24T19:52:01.059Z,26.00
2018-07-24T19:54:29.172Z,26.00
2018-07-24T19:56:57.270Z,25.90
2018-07-24T19:59:25.448Z,25.90
2018-07-24T20:01:53.738Z,25.80
2018-07-24T20:04:21.826Z,25.80
2018-07-24T20:06:50.318Z,25.80
2018-07-24T20:09:18.525Z,25.70
2018-07-24T20:11:46.653Z,25.60
2018-07-24T20:14:14.996Z,25.60
2018-07-24T20:16:44.729Z,25.50
2018-07-24T20:19:12.883Z,25.50
2018-07-24T20:21:41.249Z,25.40
2018-07-24T20:24:10.894Z,25.40
2018-07-24T20:26:39.193Z,25.30
2018-07-24T20:29:07.355Z,25.30
2018-07-24T20:31:35.518Z,25.20
2018-07-24T20:34:03.667Z,25.20
2018-07-24T20:36:31.780Z,25.10
2018-07-24T20:41:28.014Z,25.10
2018-07-24T20:43:56.239Z,25.00
2018-07-24T20:46:24.342Z,25.10
2018-07-24T20:48:52.462Z,25.00
2018-07-24T20:51:20.590Z,25.00
2018-07-24T20:53:48.708Z,25.00
2018-07-24T20:56:16.878Z,25.00
2018-07-24T20:58:45.015Z,24.90
2018-07-24T21:01:13.159Z,24.90
2018-07-24T21:03:41.282Z,24.90
2018-07-24T21:06:09.371Z,24.90
2018-07-24T21:08:37.544Z,24.80
2018-07-24T21:11:05.651Z,24.80
2018-07-24T21:13:33.831Z,24.70
2018-07-24T21:16:01.952Z,24.70
2018-07-24T21:18:30.204Z,24.60
2018-07-24T21:20:58.348Z,24.60
2018-07-24T21:23:26.473Z,24.50
2018-07-24T21:25:54.650Z,24.50
2018-07-24T21:28:22.762Z,24.40
2018-07-24T21:30:50.908Z,24.40
2018-07-24T21:33:19.090Z,24.40
2018-07-24T21:35:47.240Z,24.30
2018-07-24T21:38:15.466Z,24.30
2018-07-24T21:40:43.565Z,24.20
2018-07-24T21:43:11.689Z,24.10
2018-07-24T21:45:39.833Z,24.00
2018-07-24T21:48:07.971Z,23.90
2018-07-24T21:50:36.084Z,23.80
2018-07-24T21:53:04.236Z,23.80
2018-07-24T21:55:32.328Z,23.70
2018-07-24T21:58:00.426Z,23.80
2018-07-24T22:00:32.837Z,23.70
2018-07-24T22:03:00.948Z,23.70
2018-07-24T22:05:29.131Z,23.70
2018-07-24T22:07:57.248Z,23.80
2018-07-24T22:10:25.497Z,23.80
2018-07-24T22:12:53.936Z,23.80
2018-07-24T22:15:23.879Z,23.80
2018-07-24T22:17:52.664Z,23.70
2018-07-24T22:20:21.017Z,23.70
2018-07-24T22:22:49.681Z,23.70
2018-07-24T22:27:46.093Z,23.60
2018-07-24T22:30:14.222Z,23.50
2018-07-24T22:32:42.383Z,23.40
2018-07-24T22:35:11.953Z,23.50
2018-07-24T22:37:40.167Z,23.50
2018-07-24T22:40:10.055Z,23.50
2018-07-24T22:42:38.163Z,23.50
2018-07-24T22:47:34.561Z,23.50
2018-07-24T22:50:02.765Z,23.40
2018-07-24T22:52:30.845Z,23.30
2018-07-24T22:54:58.926Z,23.20
2018-07-24T22:59:55.152Z,23.10
2018-07-24T23:02:23.243Z,23.20
2018-07-24T23:04:51.384Z,23.20
2018-07-24T23:07:19.446Z,23.20
2018-07-24T23:09:47.571Z,23.20
2018-07-24T23:12:15.642Z,23.20
2018-07-24T23:14:43.791Z,23.20
2018-07-24T23:17:11.912Z,23.10
2018-07-24T23:19:40.032Z,23.10
2018-07-24T23:22:08.143Z,23.00
2018-07-24T23:24:36.328Z,23.00
2018-07-24T23:27:04.402Z,22.90
2018-07-24T23:29:32.512Z,22.80
2018-07-24T23:32:00.645Z,22.70
2018-07-24T23:34:28.747Z,22.60
2018-07-24T23:36:56.861Z,22.60
2018-07-24T23:39:24.944Z,22.50
2018-07-24T23:41:53.106Z,22.40
2018-07-24T23:44:21.216Z,22.40
2018-07-24T23:46:49.366Z,22.40
2018-07-24T23:49:17.432Z,22.30
2018-07-24T23:51:45.593Z,22.30
2018-07-24T23:54:13.683Z,22.30
2018-07-24T23:56:41.858Z,22.20
2018-07-24T23:59:09.967Z,22.20
